Masthead Graphic

Historical weather data from Belfast International Airport

The table below shows the weather reports for the last 24 hours taken from the METAR weather bulletins issued by Belfast International Airport. Readings should be at 30 min intervals however they are not always available

Date Time Pressure mb Temp. Wind Kts Wind Dir. Gusts Kts Conditions
24/10/2017 03:50:00 1008 11 9 180 scattered clouds
rain
24/10/2017 03:20:00 1008 10 7 150 mostly cloudy
heavy rain
24/10/2017 01:50:00 1010 11 6 180 no significant cloud
light rain
24/10/2017 01:20:00 1009 10 7 160 clear skies
24/10/2017 00:50:00 1010 10 8 180 no significant cloud
light rain
24/10/2017 00:20:00 1010 10 7 180 clear skies
23/10/2017 23:50:00 1010 10 6 200 clear skies
23/10/2017 23:20:00 1011 10 9 190 clear skies
23/10/2017 22:50:00 1011 10 7 200 clear skies
23/10/2017 22:20:00 1011 9 6 200 clear skies
23/10/2017 21:50:00 1011 10 7 210 clear skies
23/10/2017 21:20:00 1011 9 6 190 clear skies
23/10/2017 20:50:00 1011 9 4 170 clear skies
23/10/2017 20:20:00 1011 9 4 180 clear skies
23/10/2017 19:50:00 1012 10 4 180 partly cloudy
23/10/2017 19:20:00 1012 10 6 210 partly cloudy
23/10/2017 18:50:00 1011 10 3 180 partly cloudy
23/10/2017 18:20:00 1011 10 3 180 clear skies
23/10/2017 17:20:00 1011 11 5 200 scattered clouds
23/10/2017 16:50:00 1011 11 5 220 mostly cloudy
23/10/2017 16:20:00 1010 11 8 260 mostly cloudy
23/10/2017 15:50:00 1010 11 11 260 mostly cloudy
drizzle rain
23/10/2017 15:20:00 1010 13 12 280 mostly cloudy
light rain showers
23/10/2017 14:50:00 1010 14 8 200 mostly cloudy
23/10/2017 14:20:00 1010 14 9 210 19 mostly cloudy
Next Last